Updated30/07/2021 08:45 
 

GeoURL
free counters
Scottish Weather Network UK Weather Network Cumulus Top Weather Sites

Peebles Weather - UV Forecast

Raw Data, Raw Data Expanded

Ignore low humidity and Dew Point values. Something wrong with the sensor.
Daytime temperatures are in direct sunlight so may be higher than official air temperature values.
As with any other website, we log your IP address and browser type in the server logs for diagnostic reasons. Cookies are used to record visit time and gauges preferences. No personal information is stored or processed.

All times are in local time (GMT, or BST in summer) unless specified.

2021/07/30 07:20 EGPH 300720Z VRB02KT 9999 OVC035 15/12 Q1004
15.4°C 0.0 mm 0.0 mm 0.0 mm 0.0 mph 0.0 mph 999.1 hPa 49% X-Ray Solar Flare Level
Planetary K-Index
Planetary K-Index History
Station Warn Rain Snow Flood Wind Ltng Heat Cold Glob Moon Temp Rain 1h Rain Fri Rain 24h Wind 10m Gust Pressure Hum Proton Levels

m Waning Gibbous Cool F0-E F: A: Kp:0 SSN:0

UV Index Forecast

 

Fri Sat Sun Mon Tue Wed
UV Index UV Index UV Index UV Index UV Index UV Index
5.1 5.2 5.2 5.0 5.3 5.4
 Medium   Medium   Medium   Medium   Medium   Medium 

UV forecast courtesy of and Copyright © KNMI/ESA (http://www.temis.nl/). Used with permission.

UV Index Legend
UV Index Scale

 

XHTML 1.1 | CSS